Хелидрайв

Карта отелей и гостиниц, располагающихся рядом с аэропортом Хелидрайв :

Хелидрайв
Санкт-Петербург
Санкт-Петербург 59° 49' 39.72" N, 30° 15' 10.5588" E
Код аэродрома ИКАО
ULLO
Код аэродрома RU
УЛЛО
Координаты
N59.82770° E030.25293°
Превышение над уровнем моря
18
Основная полоса
03/21
Курс магнитный
033,6/213,6
Длина основной ВПП
874
Ширина основной ВПП
24
Покрытие основной ВПП
Твёрдое
Освещение ВПП
Постоянное
Тип: 
Аэродром
Класс аэродрома: 
Принадлежность: 
АОН
Статус: 
Действующий
Сайт: 
www.helidrive.com
E-mail аэродрома: 
info@helidrive.com
Страна: 
Россия
Регион: 
Санкт-Петербург
Город: 
Санкт-Петербург
Дополнительная информация: 
Оператор: частный вертолетный центр «ХЕЛИ-ДРАЙВ». Сервис международного уровня. Ангарное хранение, сертифицированное ТО любой сложности.

Найти трансфер

С помощью этой формы Вы можете найти трансфер из аэропорта Хелидрайв в город, аэропорт или вокзал:

Карта места

Javascript is required to view this map.

Погода в аэропортах:

Авиационная погода в аэропорту Алыкель

Регион: 
Погода METAR: 
UOOO 241700Z 06003MPS 3100 -SN SCT012 M03/M03 Q0987 R01/491048 NOSIG RMK QFE726/0968
Время наблюдения
2021-10-24T17:00:00Z
Температура C
-3.0
Точка росы
-3.0
Направление ветра
60
Скорость ветра (узлы)
6
Метео видимость
1.93
Явления погоды
-SN
Условия полета
IFR
Аэропорт подробнее: 

Авиационная погода в Синопе

Регион: 
Погода METAR: 
LTCM 241650Z 32008KT 210V360 7000 -SHRA SCT015 BKN025 BKN070 13/11 Q1026
Время наблюдения
2021-10-24T16:50:00Z
Температура C
13.0
Точка росы
11.0
Направление ветра
320
Скорость ветра (узлы)
8
Метео видимость
4.35
Явления погоды
-SHRA
Условия полета
MVFR

Авиационная погода в Вардё

Регион: 
Погода METAR: 
ENSS 241650Z 34006KT 9999 VCSH SCT030 M01/M06 Q1013 RMK WIND 500FT 36014KT
Время наблюдения
2021-10-24T16:50:00Z
Температура C
-1.0
Точка росы
-6.0
Направление ветра
340
Скорость ветра (узлы)
6
Метео видимость
6.21
Явления погоды
VCSH
Условия полета
VFR

Авиационная погода в Алматы

Регион: 
Погода METAR: 
UAAA 241800Z 15001MPS 1400 R23L/P2000D BR FU NSC 02/M00 Q1020 R23L/CLRD65 NOSIG
Время наблюдения
2021-10-24T18:00:00Z
Температура C
2.0
Точка росы
0.0
Направление ветра
150
Скорость ветра (узлы)
2
Метео видимость
0.87
Явления погоды
FU BR
Условия полета
LIFR
Аэропорт подробнее: